createdAt,value
2017-09-25T00:00:46.106Z,15.73
2017-09-25T00:03:13.023Z,14.90
2017-09-25T00:05:39.939Z,15.10
2017-09-25T00:08:06.090Z,15.10
2017-09-25T00:10:33.453Z,14.40
2017-09-25T00:12:59.654Z,15.60
2017-09-25T00:15:28.697Z,15.50
2017-09-25T00:17:55.590Z,14.97
2017-09-25T00:20:21.840Z,15.70
2017-09-25T00:22:48.036Z,15.00
2017-09-25T00:25:14.664Z,15.10
2017-09-25T00:27:40.872Z,14.70
2017-09-25T00:30:07.865Z,14.33
2017-09-25T00:32:34.317Z,15.80
2017-09-25T00:35:00.542Z,15.37
2017-09-25T00:37:26.738Z,14.63
2017-09-25T00:39:54.783Z,14.73
2017-09-25T00:42:21.739Z,15.03
2017-09-25T00:44:48.007Z,13.60
2017-09-25T00:47:14.227Z,12.73
2017-09-25T00:49:40.427Z,14.27
2017-09-25T00:52:07.333Z,14.03
2017-09-25T00:54:33.578Z,12.50
2017-09-25T00:57:00.500Z,12.83
2017-09-25T00:59:28.294Z,12.27
2017-09-25T01:02:09.916Z,13.20
2017-09-25T01:04:48.822Z,11.80
2017-09-25T01:07:14.995Z,11.87
2017-09-25T01:09:41.157Z,10.93
2017-09-25T01:12:09.080Z,11.43
2017-09-25T01:14:35.287Z,11.70
2017-09-25T01:17:01.461Z,11.27
2017-09-25T01:19:27.660Z,11.50
2017-09-25T01:21:54.076Z,10.93
2017-09-25T01:24:20.494Z,10.97
2017-09-25T01:26:46.694Z,11.90
2017-09-25T01:29:14.396Z,11.10
2017-09-25T01:31:40.606Z,11.17
2017-09-25T01:34:07.503Z,10.90
2017-09-25T01:36:33.666Z,11.20
2017-09-25T01:38:59.893Z,11.73
2017-09-25T01:41:27.567Z,11.00
2017-09-25T01:43:55.521Z,10.53
2017-09-25T01:46:21.675Z,11.37
2017-09-25T01:48:49.399Z,11.90
2017-09-25T01:51:15.604Z,11.80
2017-09-25T01:53:41.798Z,11.50
2017-09-25T01:56:08.700Z,11.17
2017-09-25T01:58:36.263Z,12.20
2017-09-25T02:01:02.628Z,10.70
2017-09-25T02:03:29.920Z,10.40
2017-09-25T02:05:56.133Z,9.53
2017-09-25T02:08:22.289Z,10.73
2017-09-25T02:10:48.494Z,9.67
2017-09-25T02:13:15.338Z,10.97
2017-09-25T02:15:41.532Z,11.10
2017-09-25T02:18:07.682Z,10.97
2017-09-25T02:20:33.859Z,10.53
2017-09-25T02:23:00.062Z,11.20
2017-09-25T02:25:27.343Z,11.67
2017-09-25T02:27:54.325Z,11.90
2017-09-25T02:30:21.264Z,9.80
2017-09-25T02:32:48.169Z,10.80
2017-09-25T02:35:14.335Z,9.60
2017-09-25T02:37:41.254Z,9.30
2017-09-25T02:40:07.407Z,9.43
2017-09-25T02:42:34.332Z,9.83
2017-09-25T02:45:01.329Z,9.20
2017-09-25T02:47:27.507Z,9.30
2017-09-25T02:49:53.668Z,10.27
2017-09-25T02:52:20.607Z,9.57
2017-09-25T02:54:47.532Z,9.90
2017-09-25T02:57:13.696Z,9.27
2017-09-25T02:59:40.201Z,9.10
2017-09-25T03:02:06.406Z,10.00
2017-09-25T03:04:32.583Z,9.47
2017-09-25T03:06:58.752Z,11.20
2017-09-25T03:09:24.951Z,9.87
2017-09-25T03:11:51.159Z,9.63
2017-09-25T03:14:18.409Z,9.80
2017-09-25T03:16:45.329Z,11.33
2017-09-25T03:19:11.502Z,9.77
2017-09-25T03:21:37.674Z,8.77
2017-09-25T03:24:03.841Z,10.60
2017-09-25T03:26:31.044Z,9.27
2017-09-25T03:28:57.234Z,11.03
2017-09-25T03:31:24.158Z,10.50
2017-09-25T03:33:51.143Z,10.47
2017-09-25T03:36:17.329Z,9.37
2017-09-25T03:38:44.263Z,8.93
2017-09-25T03:41:11.941Z,11.33
2017-09-25T03:43:38.844Z,9.33
2017-09-25T03:46:04.990Z,10.00
2017-09-25T03:48:31.154Z,10.33
2017-09-25T03:50:58.101Z,10.47
2017-09-25T03:53:25.074Z,10.70
2017-09-25T03:55:51.281Z,11.30
2017-09-25T03:58:17.443Z,11.70
2017-09-25T04:00:43.595Z,9.80
2017-09-25T04:03:09.835Z,10.80
2017-09-25T04:05:36.240Z,11.40
2017-09-25T04:08:02.484Z,10.10
2017-09-25T04:10:28.682Z,11.70
2017-09-25T04:12:54.876Z,10.83
2017-09-25T04:15:21.081Z,11.10
2017-09-25T04:17:48.766Z,12.23
2017-09-25T04:20:16.107Z,11.93
2017-09-25T04:22:43.034Z,12.27
2017-09-25T04:25:09.255Z,10.83
2017-09-25T04:27:35.475Z,11.70
2017-09-25T04:30:01.643Z,11.83
2017-09-25T04:32:28.578Z,13.00
2017-09-25T04:34:55.538Z,13.43
2017-09-25T04:37:22.448Z,12.30
2017-09-25T04:39:48.630Z,11.80
2017-09-25T04:42:15.642Z,13.00
2017-09-25T04:44:41.859Z,11.70
2017-09-25T04:47:09.570Z,12.60
2017-09-25T04:49:35.778Z,12.50
2017-09-25T04:52:02.686Z,12.13
2017-09-25T04:54:28.896Z,12.83
2017-09-25T04:56:55.055Z,11.80
2017-09-25T04:59:21.244Z,11.87
2017-09-25T05:01:47.427Z,11.07
2017-09-25T05:04:14.386Z,9.63
2017-09-25T05:06:41.319Z,8.70
2017-09-25T05:09:08.222Z,9.07
2017-09-25T05:11:34.391Z,8.87
2017-09-25T05:14:00.613Z,9.17
2017-09-25T05:16:27.642Z,9.17
2017-09-25T05:18:53.830Z,8.80
2017-09-25T05:21:20.007Z,9.50
2017-09-25T05:23:47.739Z,7.83
2017-09-25T05:26:13.969Z,8.70
2017-09-25T05:28:40.167Z,9.67
2017-09-25T05:31:06.336Z,9.70
2017-09-25T05:33:32.559Z,9.10
2017-09-25T05:35:58.723Z,10.33
2017-09-25T05:38:25.641Z,10.57
2017-09-25T05:40:51.855Z,9.93
2017-09-25T05:43:18.059Z,9.60
2017-09-25T05:45:44.541Z,9.60
2017-09-25T05:48:10.798Z,9.57
2017-09-25T05:50:37.744Z,10.10
2017-09-25T05:53:04.674Z,7.90
2017-09-25T05:55:34.305Z,9.47
2017-09-25T05:58:01.240Z,9.87
2017-09-25T06:00:27.423Z,8.37
2017-09-25T06:02:53.601Z,8.50
2017-09-25T06:05:20.576Z,8.13
2017-09-25T06:07:46.733Z,9.07
2017-09-25T06:10:12.911Z,7.90
2017-09-25T06:12:39.852Z,7.90
2017-09-25T06:15:06.787Z,8.70
2017-09-25T06:17:33.684Z,9.33
2017-09-25T06:19:59.852Z,8.07
2017-09-25T06:22:26.062Z,8.20
2017-09-25T06:24:52.215Z,8.00
2017-09-25T06:27:18.434Z,7.20
2017-09-25T06:29:44.606Z,7.53
2017-09-25T06:32:10.843Z,8.47
2017-09-25T06:34:37.015Z,8.60
2017-09-25T06:37:03.976Z,7.13
2017-09-25T06:39:30.924Z,7.60
2017-09-25T06:41:57.143Z,7.60
2017-09-25T06:44:23.329Z,7.10
2017-09-25T06:46:49.496Z,6.90
2017-09-25T06:49:16.574Z,7.40
2017-09-25T06:51:43.627Z,8.00
2017-09-25T06:54:10.658Z,6.73
2017-09-25T06:56:37.809Z,6.63
2017-09-25T06:59:04.748Z,6.70
2017-09-25T07:01:31.778Z,7.23
2017-09-25T07:03:58.191Z,6.20
2017-09-25T07:06:24.536Z,6.97
2017-09-25T07:08:50.852Z,7.80
2017-09-25T07:11:17.267Z,7.00
2017-09-25T07:13:43.513Z,7.13
2017-09-25T07:16:09.827Z,7.50
2017-09-25T07:18:36.085Z,7.23
2017-09-25T07:21:02.398Z,8.87
2017-09-25T07:23:28.654Z,7.93
2017-09-25T07:25:54.925Z,8.47
2017-09-25T07:28:21.212Z,8.00
2017-09-25T07:30:49.235Z,8.60
2017-09-25T07:33:15.476Z,8.60
2017-09-25T07:35:42.152Z,9.10
2017-09-25T07:38:08.403Z,8.07
2017-09-25T07:40:34.605Z,9.00
2017-09-25T07:43:00.794Z,8.63
2017-09-25T07:45:27.060Z,9.10
2017-09-25T07:47:53.339Z,8.33
2017-09-25T07:50:20.327Z,8.10
2017-09-25T07:52:46.644Z,8.20
2017-09-25T07:55:13.031Z,7.13
2017-09-25T07:57:39.225Z,7.87
2017-09-25T08:00:06.282Z,7.87
2017-09-25T08:02:32.503Z,8.20
2017-09-25T08:04:58.776Z,7.83
2017-09-25T08:07:25.738Z,8.17
2017-09-25T08:09:52.017Z,7.30
2017-09-25T08:12:18.294Z,7.37
2017-09-25T08:14:45.312Z,7.10
2017-09-25T08:17:11.531Z,8.70
2017-09-25T08:19:37.811Z,25.53
2017-09-25T08:22:04.094Z,14.43
2017-09-25T08:24:30.356Z,11.30
2017-09-25T08:26:57.336Z,14.53
2017-09-25T08:29:23.526Z,10.30
2017-09-25T08:31:50.588Z,9.47
2017-09-25T08:34:17.533Z,8.70
2017-09-25T08:36:43.756Z,9.00
2017-09-25T08:39:10.753Z,9.70
2017-09-25T08:41:36.978Z,9.43
2017-09-25T08:44:03.232Z,9.37
2017-09-25T08:46:29.434Z,9.37
2017-09-25T08:48:55.731Z,9.37
2017-09-25T08:51:21.943Z,9.10
2017-09-25T08:53:48.872Z,9.57
2017-09-25T08:56:15.119Z,7.70
2017-09-25T08:58:42.134Z,9.43
2017-09-25T09:01:08.318Z,8.50
2017-09-25T09:03:34.563Z,9.10
2017-09-25T09:06:01.747Z,9.40
2017-09-25T09:08:40.370Z,10.03
2017-09-25T09:11:06.583Z,10.87
2017-09-25T09:13:32.852Z,8.47
2017-09-25T09:15:59.840Z,9.93
2017-09-25T09:18:26.106Z,10.23
2017-09-25T09:20:52.387Z,9.97
2017-09-25T09:23:18.614Z,10.50
2017-09-25T09:25:44.800Z,9.90
2017-09-25T09:28:11.072Z,9.13
2017-09-25T09:30:37.276Z,10.03
2017-09-25T09:33:04.242Z,10.00
2017-09-25T09:35:30.584Z,7.97
2017-09-25T09:37:56.950Z,7.80
2017-09-25T09:40:23.239Z,9.47
2017-09-25T09:42:49.459Z,8.63
2017-09-25T09:45:15.658Z,7.70
2017-09-25T09:47:41.927Z,9.10
2017-09-25T09:50:08.290Z,8.17
2017-09-25T09:52:34.537Z,8.17
2017-09-25T09:55:00.786Z,9.97
2017-09-25T10:00:16.220Z,8.00
2017-09-25T10:02:42.428Z,8.90
2017-09-25T10:05:09.363Z,8.37
2017-09-25T10:07:36.335Z,8.33
2017-09-25T10:10:02.600Z,7.77
2017-09-25T10:12:28.808Z,7.13
2017-09-25T10:14:55.004Z,8.10
2017-09-25T10:17:21.973Z,7.60
2017-09-25T10:19:48.185Z,6.80
2017-09-25T10:22:15.186Z,6.90
2017-09-25T10:24:41.385Z,6.10
2017-09-25T10:27:08.727Z,7.00
2017-09-25T10:29:34.942Z,6.13
2017-09-25T10:32:01.868Z,6.30
2017-09-25T10:34:28.833Z,5.93
2017-09-25T10:36:55.815Z,5.17
2017-09-25T10:39:21.973Z,5.90
2017-09-25T10:41:48.168Z,5.70
2017-09-25T10:44:14.385Z,5.93
2017-09-25T10:46:40.608Z,4.87
2017-09-25T10:49:06.896Z,5.90
2017-09-25T10:51:33.169Z,7.77
2017-09-25T10:53:59.375Z,6.23
2017-09-25T10:56:26.375Z,5.60
2017-09-25T10:58:52.984Z,4.90
2017-09-25T11:01:19.872Z,4.30
2017-09-25T11:03:46.097Z,4.70
2017-09-25T11:06:13.804Z,4.37
2017-09-25T11:08:40.775Z,5.43
2017-09-25T11:11:06.983Z,4.97
2017-09-25T11:13:33.931Z,5.90
2017-09-25T11:16:00.151Z,5.33
2017-09-25T11:18:27.175Z,6.60
2017-09-25T11:20:53.441Z,6.20
2017-09-25T11:23:19.650Z,6.03
2017-09-25T11:25:48.173Z,5.50
2017-09-25T11:37:59.425Z,6.67
2017-09-25T11:40:25.605Z,6.20
2017-09-25T11:42:51.819Z,5.63
2017-09-25T11:45:19.956Z,5.50
2017-09-25T11:47:46.163Z,5.40
2017-09-25T11:50:12.387Z,5.23
2017-09-25T12:02:23.622Z,4.37
2017-09-25T12:04:50.539Z,5.80
2017-09-25T12:07:17.093Z,4.53
2017-09-25T12:09:44.133Z,4.63
2017-09-25T12:12:10.344Z,5.30
2017-09-25T12:14:39.048Z,5.60
2017-09-25T12:17:05.227Z,5.53
2017-09-25T12:19:31.547Z,4.60
2017-09-25T12:21:57.822Z,4.63
2017-09-25T12:24:24.004Z,5.67
2017-09-25T12:26:50.294Z,4.90
2017-09-25T12:29:16.542Z,6.10
2017-09-25T12:31:43.796Z,5.20
2017-09-25T12:34:10.800Z,6.73
2017-09-25T12:36:37.012Z,4.90
2017-09-25T12:39:03.414Z,5.43
2017-09-25T12:41:31.204Z,5.43
2017-09-25T12:43:57.446Z,4.87
2017-09-25T12:46:23.655Z,5.37
2017-09-25T12:48:49.872Z,5.30
2017-09-25T12:51:16.037Z,5.70
2017-09-25T12:53:42.309Z,5.50
2017-09-25T12:56:09.412Z,6.93
2017-09-25T12:58:35.625Z,5.47
2017-09-25T13:01:04.465Z,5.80
2017-09-25T13:03:30.683Z,5.43
2017-09-25T13:05:57.620Z,5.80
2017-09-25T13:08:23.834Z,5.90
2017-09-25T13:10:50.034Z,5.30
2017-09-25T13:13:16.265Z,5.87
2017-09-25T13:15:42.482Z,6.13
2017-09-25T13:18:10.944Z,6.57
2017-09-25T13:20:37.970Z,5.80
2017-09-25T13:23:04.220Z,5.80
2017-09-25T13:25:30.437Z,5.27
2017-09-25T13:27:56.669Z,5.37
2017-09-25T13:30:22.904Z,5.37
2017-09-25T13:32:49.112Z,5.00
2017-09-25T13:35:30.880Z,5.77
2017-09-25T13:37:57.230Z,5.63
2017-09-25T13:40:27.114Z,6.57
2017-09-25T13:42:53.363Z,6.87
2017-09-25T13:45:20.027Z,6.07
2017-09-25T13:47:46.243Z,5.73
2017-09-25T13:50:12.437Z,5.87
2017-09-25T13:52:38.644Z,6.70
2017-09-25T14:06:29.216Z,7.17
2017-09-25T14:08:56.178Z,8.10
2017-09-25T14:11:23.209Z,6.10
2017-09-25T14:13:50.163Z,6.07
2017-09-25T14:16:17.108Z,5.87
2017-09-25T14:18:44.126Z,6.27
2017-09-25T14:21:10.355Z,6.50
2017-09-25T14:23:36.588Z,5.97
2017-09-25T14:26:03.715Z,5.80
2017-09-25T14:28:29.976Z,6.23
2017-09-25T14:30:56.227Z,6.20
2017-09-25T14:33:23.222Z,5.87
2017-09-25T14:35:49.463Z,5.80
2017-09-25T14:38:15.774Z,6.40
2017-09-25T14:40:42.034Z,6.90
2017-09-25T14:43:08.314Z,6.47
2017-09-25T14:45:35.363Z,9.67
2017-09-25T14:48:02.670Z,6.80
2017-09-25T14:50:28.925Z,5.77
2017-09-25T14:52:55.931Z,5.60
2017-09-25T15:05:07.603Z,7.03
2017-09-25T15:07:33.883Z,6.77
2017-09-25T15:10:00.075Z,6.00
2017-09-25T15:12:27.805Z,7.73
2017-09-25T15:14:54.056Z,7.00
2017-09-25T15:17:20.280Z,7.90
2017-09-25T15:19:46.456Z,8.20
2017-09-25T15:22:12.653Z,6.50
2017-09-25T15:24:39.620Z,6.60
2017-09-25T15:27:06.637Z,6.90
2017-09-25T15:29:32.805Z,6.70
2017-09-25T15:31:58.995Z,7.10
2017-09-25T15:34:25.207Z,7.40
2017-09-25T15:36:51.400Z,6.23
2017-09-25T15:39:17.616Z,6.70
2017-09-25T15:41:43.878Z,6.90
2017-09-25T15:44:10.081Z,5.40
2017-09-25T15:46:36.287Z,6.60
2017-09-25T15:49:02.505Z,5.63
2017-09-25T15:51:29.415Z,18.00
2017-09-25T15:53:55.601Z,12.93
2017-09-25T15:56:21.815Z,8.07
2017-09-25T15:58:48.702Z,7.43
2017-09-25T16:01:14.993Z,7.20
2017-09-25T16:03:42.452Z,7.80
2017-09-25T16:06:09.703Z,6.90
2017-09-25T16:08:36.619Z,6.40
2017-09-25T16:11:02.853Z,6.57
2017-09-25T16:13:29.052Z,6.97
2017-09-25T16:15:55.296Z,6.00
2017-09-25T16:18:21.517Z,6.37
2017-09-25T16:20:49.264Z,5.90
2017-09-25T16:23:16.500Z,7.40
2017-09-25T16:25:44.324Z,6.60
2017-09-25T16:28:11.099Z,7.40
2017-09-25T16:30:38.051Z,6.23
2017-09-25T16:33:04.263Z,5.50
2017-09-25T16:35:31.407Z,6.53
2017-09-25T16:37:58.405Z,7.43
2017-09-25T16:40:24.625Z,29.60
2017-09-25T16:42:54.512Z,7.90
2017-09-25T16:45:20.713Z,6.93
2017-09-25T16:47:46.937Z,8.13
2017-09-25T16:50:13.144Z,8.00
2017-09-25T16:52:40.130Z,8.80
2017-09-25T16:55:07.246Z,8.07
2017-09-25T16:57:34.401Z,8.23
2017-09-25T17:00:01.592Z,8.27
2017-09-25T17:02:28.838Z,8.67
2017-09-25T17:04:56.432Z,8.40
2017-09-25T17:07:22.740Z,9.80
2017-09-25T17:09:50.486Z,9.20
2017-09-25T17:12:16.714Z,10.20
2017-09-25T17:14:44.651Z,9.03
2017-09-25T17:17:11.277Z,9.23
2017-09-25T17:19:37.696Z,7.87
2017-09-25T17:22:04.157Z,8.30
2017-09-25T17:24:30.538Z,7.93
2017-09-25T17:26:56.973Z,8.00
2017-09-25T17:29:23.504Z,7.97
2017-09-25T17:31:50.746Z,8.13
2017-09-25T17:34:18.218Z,8.73
2017-09-25T17:36:44.726Z,8.10
2017-09-25T17:39:11.306Z,7.83
2017-09-25T17:41:37.848Z,9.00
2017-09-25T17:44:04.286Z,8.70
2017-09-25T17:56:15.543Z,8.50
2017-09-25T17:58:44.355Z,7.67
2017-09-25T18:01:11.116Z,8.60
2017-09-25T18:03:38.002Z,8.00
2017-09-25T18:06:04.920Z,9.23
2017-09-25T18:08:33.196Z,8.40
2017-09-25T18:11:01.275Z,8.47
2017-09-25T18:13:28.214Z,7.70
2017-09-25T18:15:55.396Z,8.13
2017-09-25T18:18:21.752Z,8.60
2017-09-25T18:20:48.748Z,7.53
2017-09-25T18:23:15.777Z,7.80
2017-09-25T18:25:45.810Z,8.40
2017-09-25T18:28:12.904Z,7.37
2017-09-25T18:30:39.167Z,7.90
2017-09-25T18:33:05.387Z,7.40
2017-09-25T18:35:31.621Z,8.03
2017-09-25T18:37:57.846Z,8.07
2017-09-25T18:40:24.085Z,7.40
2017-09-25T18:42:50.327Z,8.50
2017-09-25T18:45:16.577Z,8.40
2017-09-25T18:47:43.525Z,8.43
2017-09-25T18:50:10.570Z,7.70
2017-09-25T18:52:38.532Z,7.80
2017-09-25T18:55:06.293Z,8.43
2017-09-25T18:57:32.488Z,7.13
2017-09-25T18:59:59.065Z,8.43
2017-09-25T19:02:26.056Z,7.03
2017-09-25T19:04:52.316Z,8.53
2017-09-25T19:07:18.635Z,8.33
2017-09-25T19:09:44.865Z,7.63
2017-09-25T19:12:12.224Z,8.80
2017-09-25T19:14:38.535Z,8.20
2017-09-25T19:17:04.783Z,8.33
2017-09-25T19:19:31.052Z,7.40
2017-09-25T19:21:57.335Z,7.40
2017-09-25T19:24:23.596Z,8.30
2017-09-25T19:26:52.891Z,8.93
2017-09-25T19:29:19.880Z,8.37
2017-09-25T19:31:46.087Z,7.50
2017-09-25T19:34:13.105Z,8.67
2017-09-25T19:36:39.378Z,7.77
2017-09-25T19:39:06.449Z,8.53
2017-09-25T19:41:32.744Z,7.90
2017-09-25T19:43:59.720Z,7.80
2017-09-25T19:46:25.989Z,7.83
2017-09-25T19:48:56.914Z,8.47
2017-09-25T19:51:24.035Z,8.60
2017-09-25T19:53:54.534Z,7.80
2017-09-25T19:56:25.278Z,8.33
2017-09-25T19:58:52.396Z,8.27
2017-09-25T20:01:21.917Z,7.43
2017-09-25T20:03:48.348Z,8.80
2017-09-25T20:06:15.334Z,9.00
2017-09-25T20:08:42.291Z,8.20
2017-09-25T20:11:09.803Z,8.20
2017-09-25T20:13:37.367Z,9.00
2017-09-25T20:19:09.618Z,8.90
2017-09-25T20:21:36.577Z,7.80
2017-09-25T20:24:02.767Z,8.90
2017-09-25T20:26:29.764Z,7.30
2017-09-25T20:28:56.924Z,7.90
2017-09-25T20:31:23.227Z,8.53
2017-09-25T20:33:49.468Z,7.20
2017-09-25T20:36:18.134Z,7.80
2017-09-25T20:38:46.036Z,7.77
2017-09-25T20:41:14.025Z,7.77
2017-09-25T20:43:54.492Z,8.33
2017-09-25T20:46:21.533Z,7.23
2017-09-25T20:48:48.907Z,8.23
2017-09-25T20:51:16.694Z,8.63
2017-09-25T20:53:45.178Z,7.33
2017-09-25T20:56:11.387Z,6.93
2017-09-25T20:58:39.262Z,8.97
2017-09-25T21:01:05.505Z,8.10
2017-09-25T21:03:31.720Z,7.30
2017-09-25T21:05:57.950Z,8.20
2017-09-25T21:08:24.279Z,9.73
2017-09-25T21:10:52.524Z,8.93
2017-09-25T21:13:21.652Z,8.47
2017-09-25T21:15:48.089Z,9.40
2017-09-25T21:18:15.292Z,7.70
2017-09-25T21:20:42.474Z,9.13
2017-09-25T21:23:09.412Z,7.80
2017-09-25T21:25:36.983Z,7.60
2017-09-25T21:28:03.216Z,7.50
2017-09-25T21:30:29.615Z,7.97
2017-09-25T21:32:56.639Z,7.43
2017-09-25T21:35:22.842Z,8.40
2017-09-25T21:37:49.048Z,7.20
2017-09-25T21:40:18.600Z,8.43
2017-09-25T21:42:44.909Z,7.60
2017-09-25T21:45:11.293Z,8.20
2017-09-25T21:47:37.810Z,7.67
2017-09-25T21:50:04.096Z,8.10
2017-09-25T21:52:32.377Z,7.73
2017-09-25T21:54:59.150Z,8.27
2017-09-25T21:57:26.237Z,8.20
2017-09-25T21:59:52.836Z,9.20
2017-09-25T22:02:19.203Z,7.73
2017-09-25T22:04:47.162Z,8.20
2017-09-25T22:07:14.048Z,7.30
2017-09-25T22:09:40.410Z,8.13
2017-09-25T22:12:07.617Z,6.60
2017-09-25T22:14:33.899Z,8.43
2017-09-25T22:17:00.136Z,8.10
2017-09-25T22:19:26.315Z,7.50
2017-09-25T22:21:54.363Z,8.83
2017-09-25T22:24:21.562Z,9.07
2017-09-25T22:26:49.867Z,8.17
2017-09-25T22:29:16.065Z,8.57
2017-09-25T22:31:42.397Z,8.10
2017-09-25T22:34:08.675Z,9.50
2017-09-25T22:36:39.611Z,7.60
2017-09-25T22:39:06.699Z,8.77
2017-09-25T22:41:33.663Z,7.80
2017-09-25T22:44:13.774Z,8.10
2017-09-25T22:46:43.899Z,7.23
2017-09-25T22:49:10.875Z,7.20
2017-09-25T22:51:37.462Z,8.00
2017-09-25T22:54:03.662Z,7.90
2017-09-25T22:56:29.894Z,7.80
2017-09-25T22:58:56.878Z,7.13
2017-09-25T23:01:24.648Z,7.13
2017-09-25T23:06:42.146Z,7.53
2017-09-25T23:09:08.825Z,7.87
2017-09-25T23:11:35.854Z,8.50
2017-09-25T23:14:02.062Z,8.10
2017-09-25T23:16:28.236Z,7.80
2017-09-25T23:18:55.227Z,8.50
2017-09-25T23:21:23.113Z,7.33
2017-09-25T23:23:49.297Z,7.73
2017-09-25T23:26:16.488Z,8.37
2017-09-25T23:28:44.423Z,8.73
2017-09-25T23:31:11.637Z,8.23
2017-09-25T23:33:37.859Z,8.30
2017-09-25T23:36:04.102Z,8.30
2017-09-25T23:38:30.306Z,9.00
2017-09-25T23:40:57.223Z,8.63
2017-09-25T23:43:23.471Z,10.13
2017-09-25T23:45:49.762Z,9.63
2017-09-25T23:48:16.722Z,8.60
2017-09-25T23:50:42.953Z,8.47
2017-09-25T23:53:09.140Z,8.40
2017-09-25T23:55:35.354Z,10.50
2017-09-25T23:58:01.598Z,8.67
